TimeAKST,TemperatureF,Dew PointF,Humidity,Sea Level PressureIn,VisibilityMPH,Wind Direction,Wind SpeedMPH,Gust SpeedMPH,PrecipitationIn,Events,Conditions,WindDirDegrees,DateUTC
12:53 AM,27.0,23.0,85,29.16,7.0,NW,16.1,-,0.00,,Overcast,320,2013-01-01 09:53:00
1:26 AM,26.6,23.0,86,29.19,7.0,NW,16.1,-,0.00,,Overcast,320,2013-01-01 10:26:00
1:36 AM,26.6,23.0,86,29.18,9.0,NNW,16.1,-,0.00,,Overcast,330,2013-01-01 10:36:00
1:53 AM,27.0,23.0,85,29.14,10.0,NW,13.8,-,0.00,,Overcast,320,2013-01-01 10:53:00
3:53 AM,26.1,23.0,88,29.11,8.0,NW,11.5,-,N/A,,Overcast,320,2013-01-01 12:53:00
4:00 AM,26.6,23.0,86,29.15,8.0,NNW,12.7,-,N/A,,Overcast,330,2013-01-01 13:00:00
4:53 AM,26.1,23.0,88,29.11,8.0,NNW,13.8,-,N/A,,Overcast,330,2013-01-01 13:53:00
5:04 AM,26.6,23.0,86,29.13,7.0,NNW,12.7,-,N/A,,Overcast,330,2013-01-01 14:04:00
5:53 AM,26.1,23.0,88,29.08,10.0,NNW,11.5,-,N/A,,Overcast,330,2013-01-01 14:53:00
6:53 AM,26.1,23.0,88,29.05,10.0,NW,9.2,-,N/A,,Overcast,310,2013-01-01 15:53:00
7:53 AM,26.1,23.0,88,29.04,10.0,NW,10.4,-,N/A,,Overcast,320,2013-01-01 16:53:00
8:53 AM,26.1,23.0,88,29.02,8.0,NNW,8.1,-,N/A,,Overcast,330,2013-01-01 17:53:00
9:53 AM,25.0,23.0,92,29.01,8.0,NW,6.9,-,N/A,,Overcast,310,2013-01-01 18:53:00
10:42 AM,26.6,24.8,93,29.04,4.0,NW,5.8,-,0.00,Rain,Light Freezing Rain,320,2013-01-01 19:42:00
10:53 AM,26.1,24.1,92,29.00,7.0,NNW,4.6,-,0.00,Rain,Light Freezing Rain,330,2013-01-01 19:53:00
11:30 AM,26.6,24.8,93,29.03,4.0,NNW,5.8,-,0.00,,Overcast,330,2013-01-01 20:30:00
11:53 AM,26.1,24.1,92,28.99,10.0,WNW,3.5,-,0.00,,Overcast,300,2013-01-01 20:53:00
12:12 PM,24.8,23.0,93,29.02,10.0,NW,3.5,-,N/A,,Overcast,310,2013-01-01 21:12:00
12:44 PM,26.6,23.0,86,29.02,5.0,NNW,4.6,-,N/A,,Overcast,330,2013-01-01 21:44:00
12:53 PM,26.1,24.1,92,28.98,4.0,NW,3.5,-,N/A,,Overcast,320,2013-01-01 21:53:00
1:37 PM,24.8,23.0,93,28.99,10.0,NNW,3.5,-,N/A,,Scattered Clouds,330,2013-01-01 22:37:00
1:53 PM,23.0,23.0,100,28.95,10.0,Calm,Calm,-,N/A,,Clear,0,2013-01-01 22:53:00
2:13 PM,26.6,23.0,86,28.98,10.0,NW,5.8,-,N/A,,Mostly Cloudy,310,2013-01-01 23:13:00
2:29 PM,26.6,24.8,93,28.97,10.0,NW,3.5,-,N/A,,Scattered Clouds,320,2013-01-01 23:29:00
2:53 PM,26.1,23.0,88,28.93,10.0,Calm,Calm,-,N/A,,Mostly Cloudy,0,2013-01-01 23:53:00
3:53 PM,26.1,23.0,88,28.91,10.0,NNW,4.6,-,N/A,,Overcast,330,2013-01-02 00:53:00
4:53 PM,26.1,24.1,92,28.91,8.0,NW,4.6,-,N/A,,Overcast,310,2013-01-02 01:53:00
5:51 PM,19.4,17.6,93,28.93,10.0,Calm,Calm,-,N/A,,Overcast,0,2013-01-02 02:51:00
5:53 PM,19.0,17.1,92,28.90,10.0,Calm,Calm,-,N/A,,Overcast,0,2013-01-02 02:53:00
6:43 PM,17.6,15.8,93,28.93,10.0,East,4.6,-,N/A,,Overcast,90,2013-01-02 03:43:00
6:53 PM,19.0,17.1,92,28.90,10.0,East,4.6,-,N/A,,Overcast,80,2013-01-02 03:53:00
7:25 PM,21.2,19.4,93,28.92,10.0,East,3.5,-,N/A,,Overcast,90,2013-01-02 04:25:00
7:41 PM,23.0,21.2,93,28.92,10.0,East,4.6,-,N/A,,Overcast,80,2013-01-02 04:41:00
7:53 PM,21.9,19.9,92,28.89,10.0,ENE,3.5,-,N/A,,Overcast,60,2013-01-02 04:53:00
8:18 PM,23.0,21.2,93,28.92,5.0,Calm,Calm,-,0.00,Snow,Light Snow,0,2013-01-02 05:18:00
8:25 PM,23.0,21.2,93,28.92,5.0,Calm,Calm,-,0.00,Snow,Light Snow,0,2013-01-02 05:25:00
8:53 PM,23.0,21.0,92,28.88,10.0,ENE,4.6,-,0.00,,Overcast,70,2013-01-02 05:53:00
9:53 PM,17.1,15.1,92,28.88,10.0,ENE,4.6,-,N/A,,Mostly Cloudy,70,2013-01-02 06:53:00
10:53 PM,19.0,17.1,92,28.89,10.0,ENE,5.8,-,N/A,,Overcast,70,2013-01-02 07:53:00
11:53 PM,21.0,19.0,92,28.89,10.0,East,4.6,-,N/A,,Overcast,90,2013-01-02 08:53:00